Time;durP1;ratioP1;P1;durP2;ratioP2;P2;SDS_P1;SDS_P2;PMS_P1;PMS_P2;Temp;Humidity;BMP_temperature;BMP_pressure;BME280_temperature;BME280_humidity;BME280_pressure;Samples;Min_cycle;Max_cycle;Signal;HPM_P1;HPM_P2
2022/05/16 00:00:44;;;;;;;4.90;2.97;;;;;;;10.44;62.16;98671.81;5053048;28;20080;-79
2022/05/16 00:03:11;;;;;;;4.68;2.75;;;;;;;10.46;61.65;98674.41;5052949;28;20162;-79
2022/05/16 00:05:38;;;;;;;5.22;2.50;;;;;;;10.47;61.78;98673.50;5053001;28;20053;-78
2022/05/16 00:08:05;;;;;;;6.13;2.65;;;;;;;10.40;61.79;98664.91;5052719;28;20060;-79
2022/05/16 00:10:32;;;;;;;5.07;2.60;;;;;;;10.45;61.09;98673.56;5035366;28;20118;-78
2022/05/16 00:13:01;;;;;;;4.32;2.30;;;;;;;10.29;60.88;98630.28;5053570;28;20069;-79
2022/05/16 00:15:29;;;;;;;2.95;2.08;;;;;;;10.25;60.78;98623.34;5058562;28;20057;-78
2022/05/16 00:17:56;;;;;;;2.53;2.30;;;;;;;10.39;60.84;98660.59;5061439;28;20049;-79
2022/05/16 00:20:23;;;;;;;3.08;2.45;;;;;;;10.41;60.08;98663.16;5062526;28;20057;-78
2022/05/16 00:22:50;;;;;;;3.50;2.20;;;;;;;10.42;60.60;98670.97;5058838;28;20567;-79
2022/05/16 00:25:17;;;;;;;3.75;2.20;;;;;;;10.52;60.08;98678.66;5052856;28;20082;-78
2022/05/16 00:27:46;;;;;;;3.47;2.20;;;;;;;10.51;59.92;98677.81;5052938;28;20060;-78
2022/05/16 00:30:17;;;;;;;3.88;2.53;;;;;;;10.53;60.02;98680.41;5052870;28;20057;-79
2022/05/16 00:32:45;;;;;;;5.43;2.30;;;;;;;10.54;60.08;98680.38;5052997;28;20067;-78
2022/05/16 00:35:12;;;;;;;5.53;2.20;;;;;;;10.55;60.05;98673.41;5052945;28;20064;-80
2022/05/16 00:37:40;;;;;;;4.07;2.20;;;;;;;10.50;59.75;98678.72;5052954;28;20136;-80
2022/05/16 00:40:09;;;;;;;4.25;2.45;;;;;;;10.41;60.54;98671.00;5057072;28;20061;-78
2022/05/16 00:42:38;;;;;;;3.53;2.10;;;;;;;10.48;60.23;98685.69;5052858;28;20048;-78
2022/05/16 00:45:06;;;;;;;3.58;2.10;;;;;;;10.44;59.90;98686.63;5052512;28;20494;-78
2022/05/16 00:47:32;;;;;;;7.72;2.42;;;;;;;10.42;59.65;98684.03;5052597;28;20148;-79
2022/05/16 00:50:01;;;;;;;2.92;1.98;;;;;;;10.35;59.63;98671.97;5052578;28;20156;-78
2022/05/16 00:52:32;;;;;;;4.45;2.35;;;;;;;10.33;59.43;98678.09;5052317;28;20433;-78
2022/05/16 00:55:03;;;;;;;3.03;2.00;;;;;;;10.40;59.60;98687.56;5052711;28;20529;-78
2022/05/16 00:57:37;;;;;;;5.53;2.10;;;;;;;10.36;59.64;98678.03;5052437;28;20061;-79
2022/05/16 01:00:04;;;;;;;3.30;2.00;;;;;;;10.41;59.48;98689.25;5052584;28;20156;-80
2022/05/16 01:05:20;;;;;;;2.17;1.58;;;;;;;10.32;59.51;98682.44;5052647;28;20514;-80
2022/05/16 01:07:47;;;;;;;2.85;1.73;;;;;;;10.40;59.10;98692.78;5052223;28;20103;-78
2022/05/16 01:10:21;;;;;;;6.43;2.00;;;;;;;10.38;59.02;98684.97;5052582;28;20056;-79
2022/05/16 01:12:51;;;;;;;3.58;1.80;;;;;;;10.30;59.26;98686.81;5052603;28;20053;-79
2022/05/16 01:15:26;;;;;;;3.65;1.60;;;;;;;10.33;59.05;98696.38;5052711;28;20048;-79
2022/05/16 01:17:55;;;;;;;3.72;1.73;;;;;;;10.27;59.68;98699.03;5035333;28;20056;-78
2022/05/16 01:20:23;;;;;;;1.75;1.48;;;;;;;10.32;59.53;98703.31;5052819;28;20095;-76
2022/05/16 01:22:53;;;;;;;5.03;2.05;;;;;;;10.27;59.28;98699.88;5052864;28;20143;-78
2022/05/16 01:25:28;;;;;;;2.42;1.80;;;;;;;10.24;59.41;98692.09;5052980;28;20102;-78
2022/05/16 01:28:04;;;;;;;4.88;2.28;;;;;;;10.22;59.46;98697.34;5052906;28;20122;-78
2022/05/16 01:30:40;;;;;;;3.00;1.40;;;;;;;10.25;59.44;98704.25;5052800;28;20049;-79
2022/05/16 01:33:09;;;;;;;3.75;1.83;;;;;;;10.24;59.37;98697.31;5051173;28;20041;-77
2022/05/16 01:35:37;;;;;;;2.73;1.60;;;;;;;10.21;59.39;98703.44;5034923;28;20107;-78
2022/05/16 01:38:23;;;;;;;2.47;1.40;;;;;;;10.25;59.88;98709.47;5030329;28;20099;-80
2022/05/16 01:41:05;;;;;;;1.63;1.45;;;;;;;10.23;59.63;98703.41;5045984;28;20061;-79
2022/05/16 01:43:40;;;;;;;1.77;1.42;;;;;;;10.22;59.08;98713.00;5062104;28;20052;-79
2022/05/16 01:46:11;;;;;;;3.00;1.33;;;;;;;10.25;59.66;98712.94;5064831;28;20106;-79
2022/05/16 01:48:38;;;;;;;5.32;1.60;;;;;;;10.27;59.76;98717.28;5063880;28;20103;-77
2022/05/16 01:51:10;;;;;;;4.47;1.60;;;;;;;10.34;59.50;98719.81;5043288;28;20478;-79
2022/05/16 01:53:41;;;;;;;2.20;2.00;;;;;;;10.37;59.48;98711.09;5035267;28;20144;-79
2022/05/16 01:56:11;;;;;;;2.72;1.88;;;;;;;10.35;59.18;98703.28;5035487;28;20084;-80
2022/05/16 01:58:40;;;;;;;1.70;1.60;;;;;;;10.35;58.96;98684.16;5001227;28;20053;-79
2022/05/16 02:01:10;;;;;;;4.40;1.70;;;;;;;10.45;58.33;98710.09;5035308;28;20092;-80
2022/05/16 02:03:40;;;;;;;3.72;2.00;;;;;;;10.56;58.49;98707.34;5035306;28;20057;-78
2022/05/16 02:06:10;;;;;;;3.38;1.98;;;;;;;10.61;58.75;98709.88;5017414;28;20491;-80
2022/05/16 02:08:37;;;;;;;1.83;1.60;;;;;;;10.57;58.54;98723.88;5034963;28;20470;-77
2022/05/16 02:11:06;;;;;;;3.15;1.90;;;;;;;10.61;58.55;98725.53;5035476;28;20503;-80
2022/05/16 02:13:36;;;;;;;1.90;1.80;;;;;;;10.62;58.14;98722.88;5017189;28;20053;-80
2022/05/16 02:16:03;;;;;;;2.25;1.70;;;;;;;10.55;58.48;98712.56;5035292;28;20099;-80
2022/05/16 02:18:30;;;;;;;2.63;1.50;;;;;;;10.60;58.68;98715.97;5034695;28;20418;-79
2022/05/16 02:26:33;;;;;;;1.60;1.48;;;;;;;10.70;58.05;98732.38;5034621;28;20045;-80
2022/05/16 02:29:00;;;;;;;3.50;1.88;;;;;;;10.72;58.13;98709.72;5017260;28;20067;-81
2022/05/16 02:31:28;;;;;;;2.20;1.80;;;;;;;10.77;57.99;98715.72;5034865;28;20076;-80
2022/05/16 02:33:57;;;;;;;1.87;1.70;;;;;;;10.82;58.11;98729.59;5034963;28;20446;-79
2022/05/16 02:36:25;;;;;;;2.08;1.88;;;;;;;10.85;57.49;98734.75;5034631;28;20299;-81
2022/05/16 02:38:52;;;;;;;4.95;2.00;;;;;;;10.92;57.30;98707.63;5034860;28;20057;-81
2022/05/16 02:41:21;;;;;;;3.55;1.83;;;;;;;11.00;56.79;98710.97;5034555;28;20203;-77
2022/05/16 02:43:50;;;;;;;4.47;1.80;;;;;;;11.18;56.70;98727.22;5034472;28;20498;-81
2022/05/16 02:46:18;;;;;;;2.80;1.77;;;;;;;11.07;56.46;98717.81;5034141;28;20507;-79
2022/05/16 02:48:46;;;;;;;3.75;1.73;;;;;;;11.15;56.48;98728.16;5016997;28;20057;-78
2022/05/16 02:51:13;;;;;;;3.92;1.70;;;;;;;11.18;56.44;98727.22;5016925;28;20148;-80
2022/05/16 02:53:40;;;;;;;1.90;1.60;;;;;;;11.19;56.34;98737.66;5036720;28;20059;-79
2022/05/16 02:56:09;;;;;;;4.37;1.40;;;;;;;11.16;56.70;98732.47;5038719;28;20075;-80
2022/05/16 02:58:37;;;;;;;3.58;1.77;;;;;;;11.30;56.40;98734.03;5034097;28;20390;-78
2022/05/16 03:01:04;;;;;;;2.53;1.88;;;;;;;11.57;55.55;98745.72;5034373;28;20053;-81
2022/05/16 03:03:33;;;;;;;2.67;1.95;;;;;;;11.68;55.42;98738.56;5033852;28;20152;-80
2022/05/16 03:06:01;;;;;;;4.45;2.38;;;;;;;11.81;55.16;98741.81;5016800;28;20045;-79
2022/05/16 03:08:29;;;;;;;2.58;1.92;;;;;;;11.91;54.86;98745.97;5033862;28;20211;-81
2022/05/16 03:10:59;;;;;;;2.45;1.60;;;;;;;12.37;53.27;98757.25;5033990;28;20061;-80
2022/05/16 03:13:27;;;;;;;1.73;1.50;;;;;;;12.39;53.02;98751.09;5033803;28;20053;-79
2022/05/16 03:15:55;;;;;;;5.30;1.80;;;;;;;11.98;54.07;98738.84;5046876;28;20490;-81
2022/05/16 03:18:24;;;;;;;3.65;1.70;;;;;;;11.79;54.84;98749.66;5044280;28;20076;-81
2022/05/16 03:20:52;;;;;;;3.00;1.73;;;;;;;11.76;54.85;98747.09;5033940;28;20049;-79
2022/05/16 03:23:19;;;;;;;5.43;1.90;;;;;;;11.97;54.10;98758.09;5033888;28;20057;-82
2022/05/16 03:25:47;;;;;;;2.17;1.40;;;;;;;12.21;53.24;98769.81;5000099;28;20049;-81
2022/05/16 03:28:14;;;;;;;4.30;1.58;;;;;;;12.26;52.54;98728.66;5033572;28;20061;-82
2022/05/16 03:30:42;;;;;;;2.95;1.70;;;;;;;12.78;52.17;98765.97;5033463;28;20557;-81
2022/05/16 03:33:10;;;;;;;3.33;1.77;;;;;;;16.05;45.05;98750.22;5033477;28;20084;-80
2022/05/16 03:35:39;;;;;;;2.25;1.75;;;;;;;18.93;38.75;98742.47;5033450;28;20056;-81
2022/05/16 03:38:07;;;;;;;2.00;1.75;;;;;;;20.23;35.88;98731.47;5035042;28;20053;-79
2022/05/16 03:40:45;;;;;;;6.13;1.80;;;;;;;19.99;35.71;98741.59;5033895;28;20104;-78
2022/05/16 03:43:14;;;;;;;2.58;1.50;;;;;;;21.35;33.44;98745.56;5015760;28;20431;-78
2022/05/16 03:45:43;;;;;;;5.13;2.00;;;;;;;23.33;30.32;98714.59;5033271;28;20491;-78
2022/05/16 03:48:10;;;;;;;4.25;1.90;;;;;;;24.73;28.15;98732.38;5033522;28;20057;-79
2022/05/16 03:50:40;;;;;;;1.60;1.50;;;;;;;25.05;27.04;98736.34;5033056;28;20056;-78
2022/05/16 03:53:09;;;;;;;3.45;2.28;;;;;;;26.06;25.89;98736.69;5033855;28;20096;-82
2022/05/16 03:55:37;;;;;;;3.42;1.42;;;;;;;26.60;24.67;98721.75;5033490;28;20061;-79
2022/05/16 03:58:04;;;;;;;3.67;1.38;;;;;;;27.47;23.67;98732.47;5032778;28;20617;-81
2022/05/16 04:00:32;;;;;;;1.80;1.50;;;;;;;26.76;23.95;98718.69;5033137;28;20123;-79
2022/05/16 04:03:00;;;;;;;2.13;1.70;;;;;;;23.02;28.19;98721.97;4984699;28;20061;-79
2022/05/16 04:05:29;;;;;;;5.38;1.50;;;;;;;19.90;33.19;98740.28;5037201;28;20068;-80
2022/05/16 04:07:57;;;;;;;2.50;1.70;;;;;;;18.57;36.01;98747.72;5043815;28;20080;-79
2022/05/16 04:10:25;;;;;;;2.65;1.58;;;;;;;18.28;36.75;98739.31;5042614;28;20503;-80
2022/05/16 04:12:54;;;;;;;5.28;1.40;;;;;;;17.66;37.61;98750.88;5041903;28;20065;-80
2022/05/16 04:15:23;;;;;;;3.42;1.65;;;;;;;17.13;38.74;98755.72;5032813;28;20450;-79
2022/05/16 04:17:51;;;;;;;2.17;1.38;;;;;;;16.67;39.49;98732.94;5015425;28;20091;-81
2022/05/16 04:20:21;;;;;;;4.40;1.60;;;;;;;16.48;39.50;98752.13;5015461;28;20049;-79
2022/05/16 04:22:49;;;;;;;3.13;1.60;;;;;;;16.34;39.87;98744.72;5032298;28;20080;-80
2022/05/16 04:25:19;;;;;;;2.75;1.30;;;;;;;16.47;39.97;98749.53;5032567;28;20064;-86
2022/05/16 04:27:53;;;;;;;3.03;1.27;;;;;;;16.53;39.99;98744.88;5015475;28;20077;-81
2022/05/16 04:30:20;;;;;;;2.17;1.38;;;;;;;16.63;39.42;98733.97;5032596;28;20507;-85
2022/05/16 04:32:47;;;;;;;4.80;1.40;;;;;;;16.38;39.95;98764.75;5032860;28;20589;-78
2022/05/16 04:35:14;;;;;;;1.58;1.48;;;;;;;15.72;40.90;98751.38;5032670;28;20077;-80
2022/05/16 04:37:41;;;;;;;16.20;5.80;;;;;;;14.95;42.41;98763.59;4998303;28;20107;-83
2022/05/16 04:40:10;;;;;;;7.13;2.70;;;;;;;14.56;43.17;98752.53;5035076;28;20049;-81
2022/05/16 04:43:03;;;;;;;;;;;;;;;;;;;;;
2022/05/16 04:45:39;;;;;;;4.15;1.40;;;;;;;14.36;43.33;98740.81;5038071;28;20084;-80
2022/05/16 04:48:34;;;;;;;2.50;1.58;;;;;;;14.39;43.35;98774.91;5026141;28;20045;-82
2022/05/16 04:51:03;;;;;;;2.83;1.42;;;;;;;13.99;43.77;98723.53;4993190;28;20052;-84
2022/05/16 04:53:30;;;;;;;4.90;1.33;;;;;;;14.16;43.74;98777.34;5010488;28;20590;-84
2022/05/16 04:55:57;;;;;;;1.45;1.02;;;;;;;14.25;43.61;98756.03;5010545;28;20060;-79
2022/05/16 04:58:24;;;;;;;2.60;1.20;;;;;;;14.04;43.85;98757.50;5041791;28;20107;-82
2022/05/16 05:00:51;;;;;;;4.25;1.48;;;;;;;14.20;43.77;98756.19;5041523;28;20060;-82
2022/05/16 05:03:18;;;;;;;1.80;1.35;;;;;;;14.35;43.16;98762.75;5041048;28;20045;-80
2022/05/16 05:05:45;;;;;;;4.22;1.38;;;;;;;14.25;43.53;98721.91;5041022;28;20049;-82
2022/05/16 05:08:13;;;;;;;2.67;1.58;;;;;;;14.30;43.90;98752.41;5046743;28;20060;-80
2022/05/16 05:16:20;;;;;;;4.63;1.30;;;;;;;14.30;43.33;98756.75;5044123;28;20053;-80
2022/05/16 05:18:47;;;;;;;2.38;1.20;;;;;;;14.27;42.92;98760.34;5046820;28;20168;-81
2022/05/16 05:21:14;;;;;;;3.97;1.83;;;;;;;14.23;42.76;98763.09;5045645;28;20045;-82
2022/05/16 05:23:41;;;;;;;1.42;1.00;;;;;;;14.22;43.24;98733.38;5044551;28;20078;-82
2022/05/16 05:26:11;;;;;;;4.28;1.30;;;;;;;14.69;42.28;98757.38;5044644;28;20057;-79
2022/05/16 05:28:38;;;;;;;3.58;1.33;;;;;;;15.20;41.49;98750.47;5058967;28;20056;-83
2022/05/16 05:31:14;;;;;;;3.90;1.00;;;;;;;15.28;41.15;98751.09;5055533;28;20057;-81
2022/05/16 05:33:43;;;;;;;1.00;1.00;;;;;;;15.37;41.27;98736.75;5037775;28;20061;-79
2022/05/16 05:36:11;;;;;;;8.77;1.65;;;;;;;15.12;40.89;98684.13;5037765;28;20449;-79
2022/05/16 05:38:38;;;;;;;3.20;1.20;;;;;;;15.14;40.93;98740.16;5038313;28;20143;-80
2022/05/16 05:41:07;;;;;;;2.35;1.30;;;;;;;15.21;41.07;98741.69;5056093;28;20563;-82
2022/05/16 05:43:36;;;;;;;1.63;1.00;;;;;;;15.14;41.27;98748.94;5056439;28;20589;-81
2022/05/16 05:46:05;;;;;;;3.60;1.17;;;;;;;15.19;40.84;98737.41;5056751;28;20049;-80
2022/05/16 05:48:33;;;;;;;2.65;1.00;;;;;;;15.25;40.08;98729.28;5056879;28;20053;-78
2022/05/16 05:51:00;;;;;;;2.70;0.98;;;;;;;15.40;40.11;98751.59;5057428;28;20053;-79
2022/05/16 05:53:28;;;;;;;1.77;1.02;;;;;;;15.50;39.73;98750.38;5037162;28;20056;-82
2022/05/16 05:56:08;;;;;;;2.08;1.30;;;;;;;15.23;39.44;98760.03;5055426;28;20084;-81
2022/05/16 05:58:36;;;;;;;3.53;1.10;;;;;;;14.96;39.79;98754.78;5055820;28;20049;-83
2022/05/16 06:01:11;;;;;;;6.60;1.10;;;;;;;14.79;39.40;98736.91;5056370;28;20081;-80
2022/05/16 06:03:41;;;;;;;3.53;1.10;;;;;;;15.26;38.59;98731.00;5055761;28;20098;-79
2022/05/16 06:06:08;;;;;;;2.85;1.20;;;;;;;15.98;37.08;98731.13;5055963;28;20049;-80
2022/05/16 06:08:35;;;;;;;1.65;0.93;;;;;;;15.99;36.09;98748.66;5029959;28;20061;-80
2022/05/16 06:11:04;;;;;;;3.00;0.90;;;;;;;16.05;35.95;98737.91;5017730;28;20085;-79
2022/05/16 06:13:33;;;;;;;5.22;1.30;;;;;;;16.07;36.38;98735.22;5035947;28;20046;-82
2022/05/16 06:16:00;;;;;;;3.08;1.08;;;;;;;16.23;36.32;98740.78;5035495;28;20053;-79
2022/05/16 06:18:28;;;;;;;2.20;1.08;;;;;;;15.98;36.36;98707.44;5031600;28;20069;-82
2022/05/16 06:21:06;;;;;;;4.38;1.25;;;;;;;15.96;37.05;98743.53;5023403;28;20507;-78
2022/05/16 06:23:34;;;;;;;4.15;1.23;;;;;;;15.83;35.85;98745.75;5015442;28;20050;-80
2022/05/16 06:26:03;;;;;;;2.70;1.15;;;;;;;15.41;36.58;98733.13;5016154;28;20088;-80
2022/05/16 06:28:32;;;;;;;3.05;0.80;;;;;;;15.20;36.62;98744.38;5001634;28;20056;-81
2022/05/16 06:31:05;;;;;;;11.02;1.85;;;;;;;15.15;37.07;98739.25;5015383;28;20054;-82
2022/05/16 06:33:34;;;;;;;1.83;0.80;;;;;;;15.18;36.66;98736.53;5015334;28;20058;-80
2022/05/16 06:36:05;;;;;;;;;;;;;;;14.84;37.36;98742.91;5015595;28;20058;-84
2022/05/16 06:38:35;;;;;;;2.00;1.25;;;;;;;14.80;37.10;98704.47;5015461;28;19925;-83
2022/05/16 06:41:04;;;;;;;1.95;0.90;;;;;;;14.99;36.80;98738.88;4965841;28;20054;-82
2022/05/16 06:43:34;;;;;;;3.47;1.00;;;;;;;14.99;36.81;98743.28;5015698;28;20088;-82
2022/05/16 06:46:03;;;;;;;1.90;1.00;;;;;;;14.73;36.56;98724.84;5015722;28;20496;-80
2022/05/16 06:48:31;;;;;;;2.50;0.88;;;;;;;14.99;36.62;98751.19;4998131;28;20053;-83
2022/05/16 06:51:06;;;;;;;1.58;0.80;;;;;;;15.11;36.58;98735.00;4997793;28;20073;-81
2022/05/16 06:53:36;;;;;;;;;;;;;;;15.48;36.55;98749.56;5019989;28;20053;-83
2022/05/16 06:56:04;;;;;;;1.15;0.73;;;;;;;15.59;35.06;98710.56;5024493;28;19929;-82
2022/05/16 06:58:32;;;;;;;2.90;1.00;;;;;;;15.59;35.55;98731.63;5026818;28;20050;-81
2022/05/16 07:01:03;;;;;;;2.30;0.98;;;;;;;15.59;35.38;98728.97;5026492;28;20049;-79
2022/05/16 07:03:32;;;;;;;4.57;1.17;;;;;;;15.73;35.57;98720.66;5024223;28;20054;-79
2022/05/16 07:06:00;;;;;;;6.28;1.40;;;;;;;15.70;35.21;98734.75;5016854;28;20576;-79
2022/05/16 07:08:27;;;;;;;4.68;1.20;;;;;;;15.43;36.04;98740.97;5025618;28;20061;-78
2022/05/16 07:10:54;;;;;;;3.60;0.85;;;;;;;15.22;36.32;98748.66;5044428;28;20049;-80
2022/05/16 07:13:25;;;;;;;2.35;0.90;;;;;;;15.14;36.25;98755.94;5048348;28;20140;-80
2022/05/16 07:15:54;;;;;;;3.42;0.90;;;;;;;15.12;36.13;98749.88;5060022;28;20151;-77
2022/05/16 07:18:22;;;;;;;6.20;1.00;;;;;;;15.02;36.53;98751.09;5058370;28;20056;-79
2022/05/16 07:20:52;;;;;;;0.52;0.52;;;;;;;14.71;36.93;98749.44;5053614;28;20084;-79
2022/05/16 07:23:20;;;;;;;8.98;1.55;;;;;;;14.40;37.81;98741.59;5036333;28;20152;-80
2022/05/16 07:28:37;;;;;;;2.83;1.05;;;;;;;13.87;38.81;98765.84;5053945;28;19929;-78
2022/05/16 07:31:05;;;;;;;2.38;0.73;;;;;;;13.58;39.49;98730.78;5053800;28;20058;-80
2022/05/16 07:33:35;;;;;;;2.47;0.93;;;;;;;13.84;39.70;98771.19;5031589;28;20072;-78
2022/05/16 07:36:05;;;;;;;2.63;0.90;;;;;;;13.67;39.86;98742.78;5016157;28;20096;-79
2022/05/16 07:38:33;;;;;;;3.60;1.30;;;;;;;13.76;40.08;98758.28;5016480;28;20144;-80
2022/05/16 07:41:00;;;;;;;2.80;1.77;;;;;;;13.71;40.15;98758.41;5015732;28;20060;-78
2022/05/16 07:43:30;;;;;;;5.90;1.85;;;;;;;13.91;40.28;98768.34;5034696;28;20049;-79
2022/05/16 07:45:58;;;;;;;4.40;1.48;;;;;;;14.05;40.22;98767.97;5026877;28;20151;-80
2022/05/16 07:48:25;;;;;;;1.58;1.02;;;;;;;14.20;39.48;98776.34;5051780;28;20067;-80
2022/05/16 07:50:53;;;;;;;4.07;1.33;;;;;;;13.94;38.73;98728.06;5053792;28;20518;-79
2022/05/16 07:53:21;;;;;;;3.90;1.35;;;;;;;14.21;38.77;98752.63;5050857;28;20061;-79
2022/05/16 07:55:52;;;;;;;1.70;1.10;;;;;;;14.34;38.37;98763.66;5043092;28;20045;-79
2022/05/16 07:58:23;;;;;;;3.38;0.90;;;;;;;14.40;37.57;98760.00;5027496;28;20099;-79
2022/05/16 08:00:55;;;;;;;3.72;1.95;;;;;;;14.26;38.29;98765.63;5034254;28;20057;-80
2022/05/16 08:03:30;;;;;;;5.50;1.67;;;;;;;14.37;38.50;98775.81;5052903;28;20049;-78
2022/05/16 08:05:58;;;;;;;2.80;0.90;;;;;;;14.34;38.53;98761.03;5038148;28;20049;-81
2022/05/16 08:11:15;;;;;;;5.65;2.40;;;;;;;14.16;38.10;98756.31;5021533;28;20108;-84
2022/05/16 08:13:44;;;;;;;5.30;1.27;;;;;;;14.30;37.24;98789.16;5030355;28;20057;-80
2022/05/16 08:16:12;;;;;;;;;;;;;;;14.19;37.76;98790.38;5033186;28;20056;-80
2022/05/16 08:18:41;;;;;;;3.40;1.13;;;;;;;14.40;37.41;98776.59;5031738;28;19929;-79
2022/05/16 08:21:11;;;;;;;1.80;1.38;;;;;;;14.63;37.41;98751.47;5032731;28;20140;-82
2022/05/16 08:23:40;;;;;;;1.65;0.82;;;;;;;14.96;37.02;98788.97;5032827;28;20499;-81
2022/05/16 08:26:10;;;;;;;2.53;0.98;;;;;;;14.60;38.34;98790.94;5032763;28;20057;-81
2022/05/16 08:28:39;;;;;;;2.88;1.15;;;;;;;14.33;39.88;98802.19;5032818;28;20050;-80
2022/05/16 08:31:07;;;;;;;1.25;1.02;;;;;;;14.28;41.01;98800.59;5032674;28;20049;-80
2022/05/16 08:33:37;;;;;;;2.75;1.20;;;;;;;14.28;41.80;98811.09;5033028;28;20169;-80
2022/05/16 08:41:54;;;;;;;3.72;1.55;;;;;;;14.39;38.81;98769.66;5032599;28;20057;-80
2022/05/16 08:44:27;;;;;;;1.90;0.90;;;;;;;14.44;37.53;98778.25;5016404;28;20057;-81
2022/05/16 08:47:11;;;;;;;1.92;0.88;;;;;;;14.60;36.88;98775.19;5019121;28;20458;-80
2022/05/16 08:49:45;;;;;;;1.63;1.30;;;;;;;14.73;36.42;98787.91;5036482;28;20083;-80
2022/05/16 08:52:41;;;;;;;2.53;1.30;;;;;;;14.87;36.79;98779.59;5036953;28;20152;-81
2022/05/16 08:55:18;;;;;;;6.30;3.63;;;;;;;15.25;36.19;98788.03;5030559;28;20537;-80
2022/05/16 08:57:57;;;;;;;8.57;5.00;;;;;;;15.56;36.32;98805.44;5010336;28;20049;-81
2022/05/16 09:00:34;;;;;;;5.32;3.08;;;;;;;15.62;36.52;98792.06;5026122;28;20049;-82
2022/05/16 09:03:07;;;;;;;6.95;4.25;;;;;;;15.86;36.70;98793.03;5025660;28;20069;-80
2022/05/16 09:05:40;;;;;;;10.40;4.57;;;;;;;15.89;37.15;98792.91;5024824;28;20046;-80
2022/05/16 09:08:14;;;;;;;8.30;4.53;;;;;;;16.05;37.23;98805.56;5007468;28;20057;-79
2022/05/16 09:10:58;;;;;;;17.02;8.30;;;;;;;15.86;37.39;98800.06;5026077;28;20088;-80
2022/05/16 09:13:54;;;;;;;16.42;8.32;;;;;;;15.67;37.74;98790.13;5026073;28;20077;-78
2022/05/16 09:16:47;;;;;;;17.85;9.85;;;;;;;15.56;38.23;98795.75;4980745;28;20080;-81
2022/05/16 09:19:40;;;;;;;9.55;5.15;;;;;;;15.91;37.88;98787.59;5020289;28;20108;-80
2022/05/16 09:22:26;;;;;;;4.85;2.70;;;;;;;16.26;37.19;98782.81;5008132;28;20466;-80
2022/05/16 09:25:03;;;;;;;2.80;1.88;;;;;;;16.25;37.33;98773.19;5018977;28;20080;-81
2022/05/16 09:30:27;;;;;;;6.47;3.95;;;;;;;15.96;38.05;98773.34;5015955;28;20054;-81
2022/05/16 09:33:01;;;;;;;5.03;1.58;;;;;;;15.65;38.34;98767.41;5016029;28;20069;-83
2022/05/16 09:35:54;;;;;;;2.70;1.42;;;;;;;15.52;37.97;98788.03;5016345;28;20057;-82
2022/05/16 09:38:22;;;;;;;18.95;3.28;;;;;;;15.55;37.36;98785.28;5016169;28;20053;-83
2022/05/16 09:41:09;;;;;;;8.55;2.30;;;;;;;15.82;37.10;98777.38;5015944;28;20049;-84
2022/05/16 09:44:17;;;;;;;3.50;1.70;;;;;;;15.96;36.94;98778.63;5024084;28;20089;-79
2022/05/16 09:46:46;;;;;;;6.10;1.70;;;;;;;16.02;37.12;98781.94;5014267;28;20064;-81
2022/05/16 09:49:13;;;;;;;2.33;1.30;;;;;;;16.08;36.61;98758.84;5015344;28;20404;-81
2022/05/16 09:52:00;;;;;;;5.65;1.95;;;;;;;16.33;36.60;98784.31;5015592;28;20140;-82
2022/05/16 09:54:32;;;;;;;3.40;2.10;;;;;;;16.43;36.67;98788.31;5015516;28;20491;-82
2022/05/16 09:57:16;;;;;;;;;;;;;;;16.43;37.16;98775.13;5015284;28;20108;-83
2022/05/16 09:59:51;;;;;;;7.65;3.70;;;;;;;16.39;37.68;98776.19;5015878;28;20290;-79
2022/05/16 10:02:25;;;;;;;8.63;3.83;;;;;;;16.24;38.03;98776.72;5015604;28;20057;-82
2022/05/16 10:05:22;;;;;;;3.92;2.03;;;;;;;15.55;37.45;98737.91;5015807;28;20045;-81
2022/05/16 10:08:01;;;;;;;4.13;2.13;;;;;;;15.93;36.76;98780.50;5016674;28;20058;-83
2022/05/16 10:10:36;;;;;;;4.93;1.80;;;;;;;16.16;36.27;98788.41;5035010;28;20049;-83
2022/05/16 10:13:05;;;;;;;4.40;2.00;;;;;;;16.47;35.90;98791.69;5035095;28;20107;-80
2022/05/16 10:15:36;;;;;;;6.57;2.67;;;;;;;16.56;35.34;98786.06;5034821;28;20057;-79
2022/05/16 10:18:08;;;;;;;7.60;2.45;;;;;;;16.54;35.53;98777.34;5034889;28;20046;-79
2022/05/16 10:20:42;;;;;;;7.53;4.20;;;;;;;16.61;35.64;98784.13;5035077;28;20091;-80
2022/05/16 10:23:18;;;;;;;3.75;1.70;;;;;;;16.51;35.55;98780.97;5034586;28;20063;-81
2022/05/16 10:25:50;;;;;;;4.03;2.63;;;;;;;16.58;35.22;98793.03;5017319;28;20092;-81
2022/05/16 10:28:22;;;;;;;4.00;1.58;;;;;;;16.53;35.66;98792.31;5034849;28;20057;-78
2022/05/16 10:33:42;;;;;;;3.92;2.40;;;;;;;17.34;34.12;98787.44;5034951;28;20057;-81
2022/05/16 10:36:28;;;;;;;5.75;1.77;;;;;;;17.35;33.43;98778.59;5033826;28;20446;-79
2022/05/16 10:39:11;;;;;;;2.05;0.93;;;;;;;17.22;33.11;98774.75;5034672;28;20084;-80
2022/05/16 10:41:51;;;;;;;2.30;1.00;;;;;;;17.11;32.50;98768.13;5017014;28;20057;-82
2022/05/16 10:44:52;;;;;;;4.30;1.40;;;;;;;16.98;32.72;98799.41;5017532;28;20058;-78
2022/05/16 10:47:29;;;;;;;1.83;1.02;;;;;;;16.48;33.23;98801.34;5044938;28;20068;-80
2022/05/16 10:50:04;;;;;;;4.95;2.53;;;;;;;16.44;34.23;98790.03;5053900;28;20430;-79
2022/05/16 10:52:47;;;;;;;7.05;2.28;;;;;;;16.50;33.91;98800.34;5036194;28;20506;-81
2022/05/16 10:55:16;;;;;;;2.85;1.42;;;;;;;16.21;34.04;98761.91;5036714;28;20151;-80
2022/05/16 10:58:17;;;;;;;1.05;0.80;;;;;;;16.04;34.19;98767.78;5054217;28;20087;-81
2022/05/16 11:01:12;;;;;;;4.15;2.55;;;;;;;15.97;34.95;98787.38;5054216;28;20053;-79
2022/05/16 11:03:58;;;;;;;3.50;1.15;;;;;;;15.86;35.13;98787.75;5054055;28;20088;-80
2022/05/16 11:06:42;;;;;;;7.20;2.00;;;;;;;16.06;34.83;98773.84;5054585;28;20457;-79
2022/05/16 11:09:32;;;;;;;8.32;3.42;;;;;;;16.25;34.40;98770.56;5053797;28;20508;-80
2022/05/16 11:12:12;;;;;;;4.65;2.50;;;;;;;16.36;34.50;98778.91;5053570;28;20071;-82
2022/05/16 11:15:05;;;;;;;1.40;0.95;;;;;;;16.28;34.44;98770.44;5043464;28;20049;-80
2022/05/16 11:17:58;;;;;;;1.67;0.80;;;;;;;16.40;34.85;98784.94;5022115;28;20064;-79
2022/05/16 11:20:28;;;;;;;1.30;0.70;;;;;;;16.38;35.21;98777.94;5034218;28;20085;-80
2022/05/16 11:23:01;;;;;;;2.70;1.00;;;;;;;16.16;35.67;98783.16;5042420;28;20143;-82
2022/05/16 11:25:34;;;;;;;3.35;1.27;;;;;;;15.94;36.22;98775.19;5035242;28;20053;-79
2022/05/16 11:28:16;;;;;;;2.65;1.58;;;;;;;15.74;37.28;98764.47;5039042;28;20072;-78
2022/05/16 11:30:54;;;;;;;1.40;1.30;;;;;;;15.49;37.63;98751.28;5048968;28;20099;-81
2022/05/16 11:33:28;;;;;;;5.70;2.53;;;;;;;15.29;38.33;98775.63;5053647;28;20045;-79
2022/05/16 11:36:07;;;;;;;4.03;2.28;;;;;;;15.21;38.34;98764.50;5035919;28;20057;-80
2022/05/16 11:38:44;;;;;;;4.15;1.88;;;;;;;15.29;38.39;98757.22;5053720;28;20139;-81
2022/05/16 11:41:35;;;;;;;4.03;1.27;;;;;;;15.46;38.34;98773.28;5035702;28;20502;-82
2022/05/16 11:44:38;;;;;;;2.72;1.10;;;;;;;15.97;37.02;98753.97;5053813;28;20045;-82
2022/05/16 11:47:15;;;;;;;3.63;1.42;;;;;;;16.53;35.77;98754.56;5053816;28;20049;-81
2022/05/16 11:50:38;;;;;;;4.95;2.70;;;;;;;16.72;35.65;98758.22;5056475;28;20045;-80
2022/05/16 11:53:43;;;;;;;3.45;1.08;;;;;;;16.65;35.83;98767.28;5039855;28;20064;-82
2022/05/16 12:02:14;;;;;;;2.42;1.20;;;;;;;15.83;37.34;98758.03;5048695;28;20075;-80
2022/05/16 12:04:47;;;;;;;4.32;1.20;;;;;;;15.76;36.80;98758.25;5041059;28;20120;-80
2022/05/16 12:07:30;;;;;;;9.35;1.70;;;;;;;15.76;36.63;98755.59;5025723;28;20068;-78
2022/05/16 12:10:16;;;;;;;10.52;2.10;;;;;;;15.59;36.79;98757.09;5042458;28;20057;-81
2022/05/16 12:12:48;;;;;;;2.75;1.50;;;;;;;15.33;35.46;98757.06;5052863;28;20044;-80
2022/05/16 12:15:35;;;;;;;8.30;2.10;;;;;;;15.16;35.20;98767.28;5052916;28;20057;-81
2022/05/16 12:18:06;;;;;;;11.10;4.95;;;;;;;15.20;35.13;98766.25;5035332;28;20546;-81
2022/05/16 12:20:38;;;;;;;4.45;2.30;;;;;;;15.25;34.80;98779.25;5052041;28;20526;-79
2022/05/16 12:23:08;;;;;;;20.52;9.45;;;;;;;15.26;34.67;98762.59;5027223;28;20053;-82
2022/05/16 12:25:41;;;;;;;1.90;1.40;;;;;;;15.20;34.45;98729.44;5044077;28;20087;-80
2022/05/16 12:28:13;;;;;;;3.95;3.00;;;;;;;15.34;33.77;98758.78;5033165;28;20478;-82
2022/05/16 12:30:55;;;;;;;1.30;0.95;;;;;;;15.25;32.81;98767.00;5036050;28;20053;-86
2022/05/16 12:33:23;;;;;;;2.45;1.80;;;;;;;15.41;32.66;98761.22;5043768;28;20088;-86
2022/05/16 12:35:56;;;;;;;2.67;0.70;;;;;;;15.33;32.17;98748.31;5042932;28;20140;-83